sensor_id;sensor_type;location;lat;lon;timestamp;temperature;humidity
71754;DHT22;59593;51.716;7.016;2024-01-07T00:02:12;2.10;99.90
71754;DHT22;59593;51.716;7.016;2024-01-07T00:04:38;2.10;99.90
71754;DHT22;59593;51.716;7.016;2024-01-07T00:07:05;2.20;99.90
71754;DHT22;59593;51.716;7.016;2024-01-07T00:09:31;2.20;99.90
71754;DHT22;59593;51.716;7.016;2024-01-07T00:11:56;2.30;99.90
71754;DHT22;59593;51.716;7.016;2024-01-07T00:14:22;2.20;99.90
71754;DHT22;59593;51.716;7.016;2024-01-07T00:16:47;2.30;99.90
71754;DHT22;59593;51.716;7.016;2024-01-07T00:19:13;2.20;99.90
71754;DHT22;59593;51.716;7.016;2024-01-07T00:21:39;2.30;99.90
71754;DHT22;59593;51.716;7.016;2024-01-07T00:24:04;2.40;99.90
71754;DHT22;59593;51.716;7.016;2024-01-07T00:26:30;2.40;99.90
71754;DHT22;59593;51.716;7.016;2024-01-07T00:28:55;2.40;99.90
71754;DHT22;59593;51.716;7.016;2024-01-07T00:31:21;2.30;99.90
71754;DHT22;59593;51.716;7.016;2024-01-07T00:33:46;2.20;99.90
71754;DHT22;59593;51.716;7.016;2024-01-07T00:36:12;2.20;99.90
71754;DHT22;59593;51.716;7.016;2024-01-07T00:38:38;2.20;99.90
71754;DHT22;59593;51.716;7.016;2024-01-07T00:41:03;2.20;99.90
71754;DHT22;59593;51.716;7.016;2024-01-07T00:43:30;2.20;99.90
71754;DHT22;59593;51.716;7.016;2024-01-07T00:45:55;2.20;99.90
71754;DHT22;59593;51.716;7.016;2024-01-07T00:48:21;2.10;99.90
71754;DHT22;59593;51.716;7.016;2024-01-07T00:50:46;2.10;99.90
71754;DHT22;59593;51.716;7.016;2024-01-07T00:53:12;2.00;99.90
71754;DHT22;59593;51.716;7.016;2024-01-07T00:55:38;2.10;99.90
71754;DHT22;59593;51.716;7.016;2024-01-07T00:58:03;2.00;99.90
71754;DHT22;59593;51.716;7.016;2024-01-07T01:00:29;2.10;99.90
71754;DHT22;59593;51.716;7.016;2024-01-07T01:02:55;2.00;99.90
71754;DHT22;59593;51.716;7.016;2024-01-07T01:05:20;2.00;99.90
71754;DHT22;59593;51.716;7.016;2024-01-07T01:07:46;2.00;99.90
71754;DHT22;59593;51.716;7.016;2024-01-07T01:10:12;2.00;99.90
71754;DHT22;59593;51.716;7.016;2024-01-07T01:12:38;2.10;99.90
71754;DHT22;59593;51.716;7.016;2024-01-07T01:15:04;2.00;99.90
71754;DHT22;59593;51.716;7.016;2024-01-07T01:17:31;2.00;99.90
71754;DHT22;59593;51.716;7.016;2024-01-07T01:19:56;2.00;99.90
71754;DHT22;59593;51.716;7.016;2024-01-07T01:22:22;2.00;99.90
71754;DHT22;59593;51.716;7.016;2024-01-07T01:24:47;1.90;99.90
71754;DHT22;59593;51.716;7.016;2024-01-07T01:27:14;2.00;99.90
71754;DHT22;59593;51.716;7.016;2024-01-07T01:29:40;2.00;99.90
71754;DHT22;59593;51.716;7.016;2024-01-07T01:32:06;2.10;99.90
71754;DHT22;59593;51.716;7.016;2024-01-07T01:34:32;2.10;99.90
71754;DHT22;59593;51.716;7.016;2024-01-07T01:36:58;2.10;99.90
71754;DHT22;59593;51.716;7.016;2024-01-07T01:39:23;2.20;99.90
71754;DHT22;59593;51.716;7.016;2024-01-07T01:41:49;2.10;99.90
71754;DHT22;59593;51.716;7.016;2024-01-07T01:44:14;2.10;99.90
71754;DHT22;59593;51.716;7.016;2024-01-07T01:46:40;2.10;99.90
71754;DHT22;59593;51.716;7.016;2024-01-07T01:49:07;2.00;99.90
71754;DHT22;59593;51.716;7.016;2024-01-07T01:51:33;2.00;99.90
71754;DHT22;59593;51.716;7.016;2024-01-07T01:53:59;2.00;99.90
71754;DHT22;59593;51.716;7.016;2024-01-07T01:56:27;2.10;99.90
71754;DHT22;59593;51.716;7.016;2024-01-07T01:58:54;2.10;99.90
71754;DHT22;59593;51.716;7.016;2024-01-07T02:01:20;2.00;99.90
71754;DHT22;59593;51.716;7.016;2024-01-07T02:03:46;2.00;99.90
71754;DHT22;59593;51.716;7.016;2024-01-07T02:06:12;2.00;99.90
71754;DHT22;59593;51.716;7.016;2024-01-07T02:08:39;1.90;99.90
71754;DHT22;59593;51.716;7.016;2024-01-07T02:11:21;1.90;99.90
71754;DHT22;59593;51.716;7.016;2024-01-07T02:13:47;2.00;99.90
71754;DHT22;59593;51.716;7.016;2024-01-07T02:16:13;1.90;99.90
71754;DHT22;59593;51.716;7.016;2024-01-07T02:18:43;2.00;99.90
71754;DHT22;59593;51.716;7.016;2024-01-07T02:21:10;2.00;99.90
71754;DHT22;59593;51.716;7.016;2024-01-07T02:23:36;2.10;99.90
71754;DHT22;59593;51.716;7.016;2024-01-07T02:26:01;2.10;99.90
71754;DHT22;59593;51.716;7.016;2024-01-07T02:28:27;2.00;99.90
71754;DHT22;59593;51.716;7.016;2024-01-07T02:30:52;2.00;99.90
71754;DHT22;59593;51.716;7.016;2024-01-07T02:33:18;2.00;99.90
71754;DHT22;59593;51.716;7.016;2024-01-07T02:35:44;2.00;99.90
71754;DHT22;59593;51.716;7.016;2024-01-07T02:38:09;1.90;99.90
71754;DHT22;59593;51.716;7.016;2024-01-07T02:40:35;1.90;99.90
71754;DHT22;59593;51.716;7.016;2024-01-07T02:43:00;2.00;99.90
71754;DHT22;59593;51.716;7.016;2024-01-07T02:45:26;1.90;99.90
71754;DHT22;59593;51.716;7.016;2024-01-07T02:47:51;1.90;99.90
71754;DHT22;59593;51.716;7.016;2024-01-07T02:50:17;1.90;99.90
71754;DHT22;59593;51.716;7.016;2024-01-07T02:52:43;1.80;99.90
71754;DHT22;59593;51.716;7.016;2024-01-07T02:55:08;1.80;99.90
71754;DHT22;59593;51.716;7.016;2024-01-07T02:57:34;1.80;99.90
71754;DHT22;59593;51.716;7.016;2024-01-07T03:00:00;1.80;99.90
71754;DHT22;59593;51.716;7.016;2024-01-07T03:02:25;1.90;99.90
71754;DHT22;59593;51.716;7.016;2024-01-07T03:04:51;1.90;99.90
71754;DHT22;59593;51.716;7.016;2024-01-07T03:07:16;1.70;99.90
71754;DHT22;59593;51.716;7.016;2024-01-07T03:09:42;1.90;99.90
71754;DHT22;59593;51.716;7.016;2024-01-07T03:12:08;1.90;99.90
71754;DHT22;59593;51.716;7.016;2024-01-07T03:14:34;1.90;99.90
71754;DHT22;59593;51.716;7.016;2024-01-07T03:16:59;1.90;99.90
71754;DHT22;59593;51.716;7.016;2024-01-07T03:19:25;1.90;99.90
71754;DHT22;59593;51.716;7.016;2024-01-07T03:21:50;1.90;99.90
71754;DHT22;59593;51.716;7.016;2024-01-07T03:24:16;2.00;99.90
71754;DHT22;59593;51.716;7.016;2024-01-07T03:26:41;1.90;99.90
71754;DHT22;59593;51.716;7.016;2024-01-07T03:29:07;1.90;99.90
71754;DHT22;59593;51.716;7.016;2024-01-07T03:31:33;1.80;99.90
71754;DHT22;59593;51.716;7.016;2024-01-07T03:33:58;1.80;99.90
71754;DHT22;59593;51.716;7.016;2024-01-07T03:36:24;1.80;99.90
71754;DHT22;59593;51.716;7.016;2024-01-07T03:38:50;1.80;99.90
71754;DHT22;59593;51.716;7.016;2024-01-07T03:41:16;1.90;99.90
71754;DHT22;59593;51.716;7.016;2024-01-07T03:43:43;1.80;99.90
71754;DHT22;59593;51.716;7.016;2024-01-07T03:46:09;1.80;99.90
71754;DHT22;59593;51.716;7.016;2024-01-07T03:48:34;1.80;99.90
71754;DHT22;59593;51.716;7.016;2024-01-07T03:51:00;1.80;99.90
71754;DHT22;59593;51.716;7.016;2024-01-07T03:53:26;1.70;99.90
71754;DHT22;59593;51.716;7.016;2024-01-07T03:55:51;1.60;99.90
71754;DHT22;59593;51.716;7.016;2024-01-07T03:58:17;1.60;99.90
71754;DHT22;59593;51.716;7.016;2024-01-07T04:00:42;1.60;99.90
71754;DHT22;59593;51.716;7.016;2024-01-07T04:03:08;1.60;99.90
71754;DHT22;59593;51.716;7.016;2024-01-07T04:05:33;1.60;99.90
71754;DHT22;59593;51.716;7.016;2024-01-07T04:08:02;1.70;99.90
71754;DHT22;59593;51.716;7.016;2024-01-07T04:10:28;1.50;99.90
71754;DHT22;59593;51.716;7.016;2024-01-07T04:12:54;1.50;99.90
71754;DHT22;59593;51.716;7.016;2024-01-07T04:15:20;1.60;99.90
71754;DHT22;59593;51.716;7.016;2024-01-07T04:17:46;1.50;99.90
71754;DHT22;59593;51.716;7.016;2024-01-07T04:20:14;1.60;99.90
71754;DHT22;59593;51.716;7.016;2024-01-07T04:22:40;1.60;99.90
71754;DHT22;59593;51.716;7.016;2024-01-07T04:25:06;1.50;99.90
71754;DHT22;59593;51.716;7.016;2024-01-07T04:27:37;1.60;99.90
71754;DHT22;59593;51.716;7.016;2024-01-07T04:30:03;1.70;99.90
71754;DHT22;59593;51.716;7.016;2024-01-07T04:32:29;1.60;99.90
71754;DHT22;59593;51.716;7.016;2024-01-07T04:34:55;1.50;99.90
71754;DHT22;59593;51.716;7.016;2024-01-07T04:37:22;1.60;99.90
71754;DHT22;59593;51.716;7.016;2024-01-07T04:39:48;1.50;99.90
71754;DHT22;59593;51.716;7.016;2024-01-07T04:42:13;1.60;99.90
71754;DHT22;59593;51.716;7.016;2024-01-07T04:44:39;1.60;99.90
71754;DHT22;59593;51.716;7.016;2024-01-07T04:47:04;1.60;99.90
71754;DHT22;59593;51.716;7.016;2024-01-07T04:49:30;1.60;99.90
71754;DHT22;59593;51.716;7.016;2024-01-07T04:51:55;1.60;99.90
71754;DHT22;59593;51.716;7.016;2024-01-07T04:54:21;1.40;99.90
71754;DHT22;59593;51.716;7.016;2024-01-07T04:56:47;1.40;99.90
71754;DHT22;59593;51.716;7.016;2024-01-07T04:59:12;1.40;99.90
71754;DHT22;59593;51.716;7.016;2024-01-07T05:01:38;1.40;99.90
71754;DHT22;59593;51.716;7.016;2024-01-07T05:04:03;1.30;99.90
71754;DHT22;59593;51.716;7.016;2024-01-07T05:06:29;1.40;99.90
71754;DHT22;59593;51.716;7.016;2024-01-07T05:08:55;1.30;99.90
71754;DHT22;59593;51.716;7.016;2024-01-07T05:11:20;1.30;99.90
71754;DHT22;59593;51.716;7.016;2024-01-07T05:13:46;1.40;99.90
71754;DHT22;59593;51.716;7.016;2024-01-07T05:16:19;1.20;99.90
71754;DHT22;59593;51.716;7.016;2024-01-07T05:18:44;1.30;99.90
71754;DHT22;59593;51.716;7.016;2024-01-07T05:21:14;1.20;99.90
71754;DHT22;59593;51.716;7.016;2024-01-07T05:23:40;1.20;99.90
71754;DHT22;59593;51.716;7.016;2024-01-07T05:26:06;1.30;99.90
71754;DHT22;59593;51.716;7.016;2024-01-07T05:28:31;1.30;99.90
71754;DHT22;59593;51.716;7.016;2024-01-07T05:30:57;1.30;99.90
71754;DHT22;59593;51.716;7.016;2024-01-07T05:33:22;1.30;99.90
71754;DHT22;59593;51.716;7.016;2024-01-07T05:35:48;1.30;99.90
71754;DHT22;59593;51.716;7.016;2024-01-07T05:38:14;1.20;99.90
71754;DHT22;59593;51.716;7.016;2024-01-07T05:40:39;1.40;99.90
71754;DHT22;59593;51.716;7.016;2024-01-07T05:43:05;1.40;99.90
71754;DHT22;59593;51.716;7.016;2024-01-07T05:45:30;1.30;99.90
71754;DHT22;59593;51.716;7.016;2024-01-07T05:47:56;1.30;99.90
71754;DHT22;59593;51.716;7.016;2024-01-07T05:50:22;1.30;99.90
71754;DHT22;59593;51.716;7.016;2024-01-07T05:52:47;1.20;99.90
71754;DHT22;59593;51.716;7.016;2024-01-07T05:55:13;1.20;99.90
71754;DHT22;59593;51.716;7.016;2024-01-07T05:57:38;1.20;99.90
71754;DHT22;59593;51.716;7.016;2024-01-07T06:00:04;1.10;99.90
71754;DHT22;59593;51.716;7.016;2024-01-07T06:02:30;1.20;99.90
71754;DHT22;59593;51.716;7.016;2024-01-07T06:04:56;1.20;99.90
71754;DHT22;59593;51.716;7.016;2024-01-07T06:07:21;1.20;99.90
71754;DHT22;59593;51.716;7.016;2024-01-07T06:09:47;1.20;99.90
71754;DHT22;59593;51.716;7.016;2024-01-07T06:12:13;1.00;99.90
71754;DHT22;59593;51.716;7.016;2024-01-07T06:14:39;1.10;99.90
71754;DHT22;59593;51.716;7.016;2024-01-07T06:17:04;1.10;99.90
71754;DHT22;59593;51.716;7.016;2024-01-07T06:19:30;1.20;99.90
71754;DHT22;59593;51.716;7.016;2024-01-07T06:21:56;1.20;99.90
71754;DHT22;59593;51.716;7.016;2024-01-07T06:24:22;1.20;99.90
71754;DHT22;59593;51.716;7.016;2024-01-07T06:26:47;1.20;99.90
71754;DHT22;59593;51.716;7.016;2024-01-07T06:29:13;1.20;99.90
71754;DHT22;59593;51.716;7.016;2024-01-07T06:31:45;1.30;99.90
71754;DHT22;59593;51.716;7.016;2024-01-07T06:34:10;1.20;99.90
71754;DHT22;59593;51.716;7.016;2024-01-07T06:36:39;1.30;99.90
71754;DHT22;59593;51.716;7.016;2024-01-07T06:39:04;1.30;99.90
71754;DHT22;59593;51.716;7.016;2024-01-07T06:41:30;1.30;99.90
71754;DHT22;59593;51.716;7.016;2024-01-07T06:43:56;1.30;99.90
71754;DHT22;59593;51.716;7.016;2024-01-07T06:46:22;1.30;99.90
71754;DHT22;59593;51.716;7.016;2024-01-07T06:48:47;1.30;99.90
71754;DHT22;59593;51.716;7.016;2024-01-07T06:51:14;1.20;99.90
71754;DHT22;59593;51.716;7.016;2024-01-07T06:53:40;1.20;99.90
71754;DHT22;59593;51.716;7.016;2024-01-07T06:56:06;1.20;99.90
71754;DHT22;59593;51.716;7.016;2024-01-07T06:58:31;1.20;99.90
71754;DHT22;59593;51.716;7.016;2024-01-07T07:00:57;1.30;99.90
71754;DHT22;59593;51.716;7.016;2024-01-07T07:03:23;1.40;99.90
71754;DHT22;59593;51.716;7.016;2024-01-07T07:05:49;1.40;99.90
71754;DHT22;59593;51.716;7.016;2024-01-07T07:08:15;1.40;99.90
71754;DHT22;59593;51.716;7.016;2024-01-07T07:10:40;1.30;99.90
71754;DHT22;59593;51.716;7.016;2024-01-07T07:13:06;1.30;99.90
71754;DHT22;59593;51.716;7.016;2024-01-07T07:15:31;1.40;99.90
71754;DHT22;59593;51.716;7.016;2024-01-07T07:17:57;1.30;99.90
71754;DHT22;59593;51.716;7.016;2024-01-07T07:20:23;1.20;99.90
71754;DHT22;59593;51.716;7.016;2024-01-07T07:22:48;1.20;99.90
71754;DHT22;59593;51.716;7.016;2024-01-07T07:25:14;1.30;99.90
71754;DHT22;59593;51.716;7.016;2024-01-07T07:27:40;1.20;99.90
71754;DHT22;59593;51.716;7.016;2024-01-07T07:30:06;1.20;99.90
71754;DHT22;59593;51.716;7.016;2024-01-07T07:32:32;1.20;99.90
71754;DHT22;59593;51.716;7.016;2024-01-07T07:34:57;1.10;99.90
71754;DHT22;59593;51.716;7.016;2024-01-07T07:37:23;1.00;99.90
71754;DHT22;59593;51.716;7.016;2024-01-07T07:39:49;1.10;99.90
71754;DHT22;59593;51.716;7.016;2024-01-07T07:42:15;1.10;99.90
71754;DHT22;59593;51.716;7.016;2024-01-07T07:44:41;1.00;99.90
71754;DHT22;59593;51.716;7.016;2024-01-07T07:47:07;1.10;99.90
71754;DHT22;59593;51.716;7.016;2024-01-07T07:49:33;1.20;99.90
71754;DHT22;59593;51.716;7.016;2024-01-07T07:51:59;1.10;99.90
71754;DHT22;59593;51.716;7.016;2024-01-07T07:54:25;1.20;99.90
71754;DHT22;59593;51.716;7.016;2024-01-07T07:56:51;1.10;99.90
71754;DHT22;59593;51.716;7.016;2024-01-07T07:59:16;1.00;99.90
71754;DHT22;59593;51.716;7.016;2024-01-07T08:01:42;1.00;99.90
71754;DHT22;59593;51.716;7.016;2024-01-07T08:04:08;1.10;99.90
71754;DHT22;59593;51.716;7.016;2024-01-07T08:06:35;1.00;99.90
71754;DHT22;59593;51.716;7.016;2024-01-07T08:09:01;1.10;99.90
71754;DHT22;59593;51.716;7.016;2024-01-07T08:11:26;1.20;99.90
71754;DHT22;59593;51.716;7.016;2024-01-07T08:13:52;1.10;99.90
71754;DHT22;59593;51.716;7.016;2024-01-07T08:16:17;1.10;99.90
71754;DHT22;59593;51.716;7.016;2024-01-07T08:18:44;1.00;99.90
71754;DHT22;59593;51.716;7.016;2024-01-07T08:21:09;0.90;99.90
71754;DHT22;59593;51.716;7.016;2024-01-07T08:23:35;1.00;99.90
71754;DHT22;59593;51.716;7.016;2024-01-07T08:26:03;1.10;99.90
71754;DHT22;59593;51.716;7.016;2024-01-07T08:28:29;1.00;99.90
71754;DHT22;59593;51.716;7.016;2024-01-07T08:30:54;0.90;99.90
71754;DHT22;59593;51.716;7.016;2024-01-07T08:33:21;0.90;99.90
71754;DHT22;59593;51.716;7.016;2024-01-07T08:35:47;0.90;99.90
71754;DHT22;59593;51.716;7.016;2024-01-07T08:38:12;0.90;99.90
71754;DHT22;59593;51.716;7.016;2024-01-07T08:40:39;0.80;99.90
71754;DHT22;59593;51.716;7.016;2024-01-07T08:43:04;0.90;99.90
71754;DHT22;59593;51.716;7.016;2024-01-07T08:45:30;0.80;99.90
71754;DHT22;59593;51.716;7.016;2024-01-07T08:47:56;0.80;99.90
71754;DHT22;59593;51.716;7.016;2024-01-07T08:50:21;0.80;99.90
71754;DHT22;59593;51.716;7.016;2024-01-07T08:52:47;0.80;99.90
71754;DHT22;59593;51.716;7.016;2024-01-07T08:55:12;0.80;99.90
71754;DHT22;59593;51.716;7.016;2024-01-07T08:57:38;0.80;99.90
71754;DHT22;59593;51.716;7.016;2024-01-07T09:00:05;1.00;99.90
71754;DHT22;59593;51.716;7.016;2024-01-07T09:02:33;0.70;99.90
71754;DHT22;59593;51.716;7.016;2024-01-07T09:04:59;0.70;99.90
71754;DHT22;59593;51.716;7.016;2024-01-07T09:07:24;0.80;99.90
71754;DHT22;59593;51.716;7.016;2024-01-07T09:09:50;0.80;99.90
71754;DHT22;59593;51.716;7.016;2024-01-07T09:12:16;0.80;99.90
71754;DHT22;59593;51.716;7.016;2024-01-07T09:14:42;0.90;99.90
71754;DHT22;59593;51.716;7.016;2024-01-07T09:17:08;1.00;99.90
71754;DHT22;59593;51.716;7.016;2024-01-07T09:19:33;0.80;99.90
71754;DHT22;59593;51.716;7.016;2024-01-07T09:21:59;1.00;99.90
71754;DHT22;59593;51.716;7.016;2024-01-07T09:24:24;0.90;99.90
71754;DHT22;59593;51.716;7.016;2024-01-07T09:26:50;1.00;99.90
71754;DHT22;59593;51.716;7.016;2024-01-07T09:29:17;1.00;99.90
71754;DHT22;59593;51.716;7.016;2024-01-07T09:31:42;0.90;99.90
71754;DHT22;59593;51.716;7.016;2024-01-07T09:34:08;0.90;99.90
71754;DHT22;59593;51.716;7.016;2024-01-07T09:36:34;1.00;99.90
71754;DHT22;59593;51.716;7.016;2024-01-07T09:39:01;0.90;99.90
71754;DHT22;59593;51.716;7.016;2024-01-07T09:41:26;1.00;99.90
71754;DHT22;59593;51.716;7.016;2024-01-07T09:43:52;1.00;99.90
71754;DHT22;59593;51.716;7.016;2024-01-07T09:46:19;0.90;99.90
71754;DHT22;59593;51.716;7.016;2024-01-07T09:48:44;0.90;99.90
71754;DHT22;59593;51.716;7.016;2024-01-07T09:51:11;0.80;99.90
71754;DHT22;59593;51.716;7.016;2024-01-07T09:53:39;1.00;99.90
71754;DHT22;59593;51.716;7.016;2024-01-07T09:56:29;1.10;99.90
71754;DHT22;59593;51.716;7.016;2024-01-07T09:58:53;1.10;99.90
71754;DHT22;59593;51.716;7.016;2024-01-07T10:01:19;1.10;99.90
71754;DHT22;59593;51.716;7.016;2024-01-07T10:03:45;1.10;99.90
71754;DHT22;59593;51.716;7.016;2024-01-07T10:06:11;1.10;99.90
71754;DHT22;59593;51.716;7.016;2024-01-07T10:08:37;1.30;99.90
71754;DHT22;59593;51.716;7.016;2024-01-07T10:11:03;1.40;99.90
71754;DHT22;59593;51.716;7.016;2024-01-07T10:13:30;1.20;99.90
71754;DHT22;59593;51.716;7.016;2024-01-07T10:15:56;1.30;99.90
71754;DHT22;59593;51.716;7.016;2024-01-07T10:18:21;1.30;99.90
71754;DHT22;59593;51.716;7.016;2024-01-07T10:20:48;1.30;99.90
71754;DHT22;59593;51.716;7.016;2024-01-07T10:23:19;1.20;99.90
71754;DHT22;59593;51.716;7.016;2024-01-07T10:25:44;1.30;99.90
71754;DHT22;59593;51.716;7.016;2024-01-07T10:28:11;1.40;99.90
71754;DHT22;59593;51.716;7.016;2024-01-07T10:30:39;1.40;99.90
71754;DHT22;59593;51.716;7.016;2024-01-07T10:33:07;1.20;99.90
71754;DHT22;59593;51.716;7.016;2024-01-07T10:35:34;1.40;99.90
71754;DHT22;59593;51.716;7.016;2024-01-07T10:38:00;1.40;99.90
71754;DHT22;59593;51.716;7.016;2024-01-07T10:40:27;1.40;99.90
71754;DHT22;59593;51.716;7.016;2024-01-07T10:42:54;1.60;99.90
71754;DHT22;59593;51.716;7.016;2024-01-07T10:45:21;1.70;99.90
71754;DHT22;59593;51.716;7.016;2024-01-07T10:47:50;1.70;99.90
71754;DHT22;59593;51.716;7.016;2024-01-07T10:50:20;1.80;99.90
71754;DHT22;59593;51.716;7.016;2024-01-07T10:52:49;1.80;99.90
71754;DHT22;59593;51.716;7.016;2024-01-07T10:55:18;1.90;99.90
71754;DHT22;59593;51.716;7.016;2024-01-07T10:57:48;2.10;99.90
71754;DHT22;59593;51.716;7.016;2024-01-07T11:00:16;1.90;99.90
71754;DHT22;59593;51.716;7.016;2024-01-07T11:08:06;2.40;99.90
71754;DHT22;59593;51.716;7.016;2024-01-07T11:10:46;2.40;99.90
71754;DHT22;59593;51.716;7.016;2024-01-07T11:13:32;1.80;99.90
71754;DHT22;59593;51.716;7.016;2024-01-07T11:15:58;2.00;99.90
71754;DHT22;59593;51.716;7.016;2024-01-07T11:18:26;1.40;99.90
71754;DHT22;59593;51.716;7.016;2024-01-07T11:20:58;1.40;99.90
71754;DHT22;59593;51.716;7.016;2024-01-07T11:26:02;1.40;99.90
71754;DHT22;59593;51.716;7.016;2024-01-07T11:28:54;1.20;99.90
71754;DHT22;59593;51.716;7.016;2024-01-07T11:31:43;1.30;99.90
71754;DHT22;59593;51.716;7.016;2024-01-07T11:34:08;1.30;99.90
71754;DHT22;59593;51.716;7.016;2024-01-07T11:36:37;1.10;99.90
71754;DHT22;59593;51.716;7.016;2024-01-07T11:39:04;1.00;99.90
71754;DHT22;59593;51.716;7.016;2024-01-07T11:41:35;0.90;99.90
71754;DHT22;59593;51.716;7.016;2024-01-07T11:44:02;1.00;99.90
71754;DHT22;59593;51.716;7.016;2024-01-07T11:46:29;0.80;99.90
71754;DHT22;59593;51.716;7.016;2024-01-07T11:48:58;0.90;99.90
71754;DHT22;59593;51.716;7.016;2024-01-07T11:51:28;0.90;99.90
71754;DHT22;59593;51.716;7.016;2024-01-07T11:53:54;0.80;99.90
71754;DHT22;59593;51.716;7.016;2024-01-07T11:56:20;0.80;99.90
71754;DHT22;59593;51.716;7.016;2024-01-07T11:58:46;0.50;99.90
71754;DHT22;59593;51.716;7.016;2024-01-07T12:01:14;0.40;99.90
71754;DHT22;59593;51.716;7.016;2024-01-07T12:03:39;0.40;99.90
71754;DHT22;59593;51.716;7.016;2024-01-07T12:06:06;0.50;99.90
71754;DHT22;59593;51.716;7.016;2024-01-07T12:08:32;0.60;99.90
71754;DHT22;59593;51.716;7.016;2024-01-07T12:10:59;0.60;99.90
71754;DHT22;59593;51.716;7.016;2024-01-07T12:13:25;0.60;99.90
71754;DHT22;59593;51.716;7.016;2024-01-07T12:15:51;0.60;99.90
71754;DHT22;59593;51.716;7.016;2024-01-07T12:18:17;0.50;99.90
71754;DHT22;59593;51.716;7.016;2024-01-07T12:20:55;0.70;99.90
71754;DHT22;59593;51.716;7.016;2024-01-07T12:23:20;0.80;99.90
71754;DHT22;59593;51.716;7.016;2024-01-07T12:25:46;0.70;99.90
71754;DHT22;59593;51.716;7.016;2024-01-07T12:28:11;0.60;99.90
71754;DHT22;59593;51.716;7.016;2024-01-07T12:30:37;0.70;99.90
71754;DHT22;59593;51.716;7.016;2024-01-07T12:33:05;1.00;99.90
71754;DHT22;59593;51.716;7.016;2024-01-07T12:35:31;0.80;99.90
71754;DHT22;59593;51.716;7.016;2024-01-07T12:37:56;1.00;99.90
71754;DHT22;59593;51.716;7.016;2024-01-07T12:40:24;1.20;99.90
71754;DHT22;59593;51.716;7.016;2024-01-07T12:42:52;1.10;99.90
71754;DHT22;59593;51.716;7.016;2024-01-07T12:45:18;1.10;99.90
71754;DHT22;59593;51.716;7.016;2024-01-07T12:47:44;1.10;99.90
71754;DHT22;59593;51.716;7.016;2024-01-07T12:50:10;1.10;99.90
71754;DHT22;59593;51.716;7.016;2024-01-07T12:52:39;1.10;99.90
71754;DHT22;59593;51.716;7.016;2024-01-07T12:55:06;1.20;99.90
71754;DHT22;59593;51.716;7.016;2024-01-07T12:57:32;1.20;99.90
71754;DHT22;59593;51.716;7.016;2024-01-07T12:59:58;1.00;99.90
71754;DHT22;59593;51.716;7.016;2024-01-07T13:02:24;1.00;99.90
71754;DHT22;59593;51.716;7.016;2024-01-07T13:04:50;1.10;99.90
71754;DHT22;59593;51.716;7.016;2024-01-07T13:07:16;1.10;99.90
71754;DHT22;59593;51.716;7.016;2024-01-07T13:09:42;1.20;99.90
71754;DHT22;59593;51.716;7.016;2024-01-07T13:12:10;1.10;99.90
71754;DHT22;59593;51.716;7.016;2024-01-07T13:14:35;0.80;99.90
71754;DHT22;59593;51.716;7.016;2024-01-07T13:17:01;0.80;99.90
71754;DHT22;59593;51.716;7.016;2024-01-07T13:19:26;0.90;99.90
71754;DHT22;59593;51.716;7.016;2024-01-07T13:21:52;1.00;99.90
71754;DHT22;59593;51.716;7.016;2024-01-07T13:24:21;1.00;99.90
71754;DHT22;59593;51.716;7.016;2024-01-07T13:26:47;1.00;99.90
71754;DHT22;59593;51.716;7.016;2024-01-07T13:29:12;1.10;99.90
71754;DHT22;59593;51.716;7.016;2024-01-07T13:31:38;1.10;99.90
71754;DHT22;59593;51.716;7.016;2024-01-07T13:34:03;1.10;99.90
71754;DHT22;59593;51.716;7.016;2024-01-07T13:36:29;1.10;99.90
71754;DHT22;59593;51.716;7.016;2024-01-07T13:38:55;1.00;99.90
71754;DHT22;59593;51.716;7.016;2024-01-07T13:41:20;1.20;99.90
71754;DHT22;59593;51.716;7.016;2024-01-07T13:43:46;1.00;99.90
71754;DHT22;59593;51.716;7.016;2024-01-07T13:46:11;1.20;99.90
71754;DHT22;59593;51.716;7.016;2024-01-07T13:48:37;0.80;99.90
71754;DHT22;59593;51.716;7.016;2024-01-07T13:51:05;0.90;99.90
71754;DHT22;59593;51.716;7.016;2024-01-07T13:53:31;0.90;99.90
71754;DHT22;59593;51.716;7.016;2024-01-07T13:55:56;1.00;99.90
71754;DHT22;59593;51.716;7.016;2024-01-07T13:58:22;0.90;99.90
71754;DHT22;59593;51.716;7.016;2024-01-07T14:00:49;0.90;99.90
71754;DHT22;59593;51.716;7.016;2024-01-07T14:03:14;0.80;99.90
71754;DHT22;59593;51.716;7.016;2024-01-07T14:05:40;0.70;99.90
71754;DHT22;59593;51.716;7.016;2024-01-07T14:08:06;0.80;99.90
71754;DHT22;59593;51.716;7.016;2024-01-07T14:10:31;0.90;99.90
71754;DHT22;59593;51.716;7.016;2024-01-07T14:12:57;0.80;99.90
71754;DHT22;59593;51.716;7.016;2024-01-07T14:15:23;0.80;99.90
71754;DHT22;59593;51.716;7.016;2024-01-07T14:17:48;0.90;99.90
71754;DHT22;59593;51.716;7.016;2024-01-07T14:20:14;0.90;99.90
71754;DHT22;59593;51.716;7.016;2024-01-07T14:22:40;0.80;99.90
71754;DHT22;59593;51.716;7.016;2024-01-07T14:25:06;0.80;99.90
71754;DHT22;59593;51.716;7.016;2024-01-07T14:27:32;0.90;99.90
71754;DHT22;59593;51.716;7.016;2024-01-07T14:29:58;0.90;99.90
71754;DHT22;59593;51.716;7.016;2024-01-07T14:32:24;0.90;99.90
71754;DHT22;59593;51.716;7.016;2024-01-07T14:34:49;0.80;99.90
71754;DHT22;59593;51.716;7.016;2024-01-07T14:37:16;0.90;99.90
71754;DHT22;59593;51.716;7.016;2024-01-07T14:39:41;0.90;99.90
71754;DHT22;59593;51.716;7.016;2024-01-07T14:42:07;1.00;99.90
71754;DHT22;59593;51.716;7.016;2024-01-07T14:44:33;1.00;99.90
71754;DHT22;59593;51.716;7.016;2024-01-07T14:46:58;1.00;99.90
71754;DHT22;59593;51.716;7.016;2024-01-07T14:49:24;0.80;99.90
71754;DHT22;59593;51.716;7.016;2024-01-07T14:51:50;0.90;99.90
71754;DHT22;59593;51.716;7.016;2024-01-07T14:54:16;0.90;99.90
71754;DHT22;59593;51.716;7.016;2024-01-07T14:56:43;0.90;99.90
71754;DHT22;59593;51.716;7.016;2024-01-07T14:59:08;1.00;99.90
71754;DHT22;59593;51.716;7.016;2024-01-07T15:01:34;0.90;99.90
71754;DHT22;59593;51.716;7.016;2024-01-07T15:04:00;0.90;99.90
71754;DHT22;59593;51.716;7.016;2024-01-07T15:06:26;0.90;99.90
71754;DHT22;59593;51.716;7.016;2024-01-07T15:08:52;1.00;99.90
71754;DHT22;59593;51.716;7.016;2024-01-07T15:11:19;0.90;99.90
71754;DHT22;59593;51.716;7.016;2024-01-07T15:13:44;0.90;99.90
71754;DHT22;59593;51.716;7.016;2024-01-07T15:16:10;0.90;99.90
71754;DHT22;59593;51.716;7.016;2024-01-07T15:18:35;0.90;99.90
71754;DHT22;59593;51.716;7.016;2024-01-07T15:21:02;1.00;99.90
71754;DHT22;59593;51.716;7.016;2024-01-07T15:23:28;0.90;99.90
71754;DHT22;59593;51.716;7.016;2024-01-07T15:25:54;0.80;99.90
71754;DHT22;59593;51.716;7.016;2024-01-07T15:28:20;0.80;99.90
71754;DHT22;59593;51.716;7.016;2024-01-07T15:30:45;0.90;99.90
71754;DHT22;59593;51.716;7.016;2024-01-07T15:33:12;0.90;99.90
71754;DHT22;59593;51.716;7.016;2024-01-07T15:35:38;0.90;99.90
71754;DHT22;59593;51.716;7.016;2024-01-07T15:38:03;0.80;99.90
71754;DHT22;59593;51.716;7.016;2024-01-07T15:40:29;0.80;99.90
71754;DHT22;59593;51.716;7.016;2024-01-07T15:42:56;0.80;99.90
71754;DHT22;59593;51.716;7.016;2024-01-07T15:45:21;0.90;99.90
71754;DHT22;59593;51.716;7.016;2024-01-07T15:47:47;0.80;99.90